createdAt,value
2018-07-15T04:14:55.468Z,4.83
2018-07-15T04:17:24.419Z,3.83
2018-07-15T04:19:53.445Z,4.08
2018-07-15T04:22:22.534Z,4.58
2018-07-15T04:24:51.548Z,4.85
2018-07-15T04:27:20.565Z,4.10
2018-07-15T04:29:49.612Z,5.08
2018-07-15T04:32:18.674Z,4.70
2018-07-15T04:34:47.717Z,4.20
2018-07-15T04:37:16.753Z,4.33
2018-07-15T04:39:45.819Z,5.22
2018-07-15T04:42:14.876Z,4.30
2018-07-15T04:44:43.904Z,4.47
2018-07-15T04:47:12.949Z,4.62
2018-07-15T04:49:41.971Z,4.83
2018-07-15T04:52:11.008Z,4.70
2018-07-15T04:54:40.045Z,5.85
2018-07-15T04:57:09.145Z,5.60
2018-07-15T04:59:38.220Z,7.50
2018-07-15T05:02:07.336Z,7.25
2018-07-15T05:04:36.311Z,7.55
2018-07-15T05:07:05.401Z,7.08
2018-07-15T05:09:34.461Z,8.70
2018-07-15T05:12:03.532Z,8.10
2018-07-15T05:14:32.549Z,8.95
2018-07-15T05:17:01.619Z,7.72
2018-07-15T05:19:30.761Z,9.80
2018-07-15T05:21:59.812Z,8.43
2018-07-15T05:24:28.884Z,9.23
2018-07-15T05:26:57.903Z,8.23
2018-07-15T05:29:26.958Z,8.45
2018-07-15T05:31:56.032Z,8.20
2018-07-15T05:34:25.061Z,8.18
2018-07-15T05:36:54.150Z,7.90
2018-07-15T05:39:23.180Z,7.10
2018-07-15T05:41:52.299Z,7.28
2018-07-15T05:44:21.345Z,7.35
2018-07-15T05:46:50.469Z,6.15
2018-07-15T05:49:19.535Z,6.55
2018-07-15T05:51:48.586Z,6.03
2018-07-15T05:54:17.642Z,6.67
2018-07-15T05:56:46.683Z,5.50
2018-07-15T05:59:15.739Z,6.75
2018-07-15T06:01:44.759Z,6.15
2018-07-15T06:04:13.800Z,6.08
2018-07-15T06:06:42.843Z,5.12
2018-07-15T06:09:11.901Z,5.70
2018-07-15T06:11:40.980Z,5.17
2018-07-15T06:14:10.028Z,5.72
2018-07-15T06:16:39.129Z,6.42
2018-07-15T06:19:08.192Z,5.65
2018-07-15T06:21:37.227Z,5.90
2018-07-15T06:24:06.426Z,5.20
2018-07-15T06:26:35.509Z,5.47
2018-07-15T06:29:04.582Z,5.70
2018-07-15T06:31:33.798Z,6.05
2018-07-15T06:34:02.893Z,6.25
2018-07-15T06:36:31.958Z,6.00
2018-07-15T06:39:01.024Z,5.62
2018-07-15T06:41:30.090Z,5.53
2018-07-15T06:43:59.239Z,5.45
2018-07-15T06:46:28.292Z,5.33
2018-07-15T06:48:57.425Z,5.15
2018-07-15T06:51:26.267Z,6.78
2018-07-15T06:53:55.352Z,5.12
2018-07-15T06:56:24.432Z,4.40
2018-07-15T06:58:53.491Z,4.00
2018-07-15T07:01:24.161Z,3.92
2018-07-15T07:03:54.096Z,5.33
2018-07-15T07:06:23.135Z,4.65
2018-07-15T07:08:52.192Z,4.40
2018-07-15T07:11:21.268Z,4.60
2018-07-15T07:13:50.644Z,4.40
2018-07-15T07:16:19.689Z,4.23
2018-07-15T07:18:48.804Z,4.33
2018-07-15T07:21:17.836Z,3.60
2018-07-15T07:23:46.921Z,3.70
2018-07-15T07:26:16.057Z,3.90
2018-07-15T07:28:45.224Z,3.90
2018-07-15T07:31:15.220Z,3.50
2018-07-15T07:33:44.013Z,3.67
2018-07-15T07:36:13.836Z,4.43
2018-07-15T07:38:42.842Z,4.63
2018-07-15T07:41:12.054Z,3.60
2018-07-15T07:43:41.223Z,3.93
2018-07-15T07:46:10.306Z,4.30
2018-07-15T07:48:39.427Z,3.83
2018-07-15T07:51:08.688Z,3.43
2018-07-15T07:53:38.020Z,3.60
2018-07-15T07:56:08.316Z,3.57
2018-07-15T07:58:37.914Z,4.20
2018-07-15T08:01:08.766Z,3.47
2018-07-15T08:03:39.406Z,3.40
2018-07-15T08:06:10.024Z,3.40
2018-07-15T08:08:40.606Z,3.87
2018-07-15T08:11:13.307Z,3.97
2018-07-15T08:13:44.497Z,3.73
2018-07-15T08:16:14.743Z,3.90
2018-07-15T08:18:44.629Z,3.30
2018-07-15T08:21:13.872Z,3.63
2018-07-15T08:23:42.974Z,3.70
2018-07-15T08:26:12.299Z,3.80
2018-07-15T08:28:41.489Z,3.83
2018-07-15T08:31:14.400Z,3.67
2018-07-15T08:33:43.494Z,4.47
2018-07-15T08:36:12.928Z,4.43
2018-07-15T08:38:42.523Z,4.10
2018-07-15T08:41:11.646Z,6.03
2018-07-15T08:43:40.989Z,3.20
2018-07-15T08:46:10.080Z,3.87
2018-07-15T08:48:39.161Z,3.90
2018-07-15T08:51:08.397Z,4.33
2018-07-15T08:53:37.630Z,4.50
2018-07-15T08:56:06.782Z,5.20
2018-07-15T08:58:35.944Z,4.47
2018-07-15T09:01:05.073Z,5.27
2018-07-15T09:03:34.103Z,4.97
2018-07-15T09:06:03.239Z,4.50
2018-07-15T09:08:32.318Z,4.73
2018-07-15T09:11:01.352Z,5.40
2018-07-15T09:13:30.420Z,3.97
2018-07-15T09:15:59.692Z,4.80
2018-07-15T09:18:28.765Z,4.03
2018-07-15T09:20:57.834Z,4.40
2018-07-15T09:23:27.038Z,4.43
2018-07-15T09:25:56.084Z,5.10
2018-07-15T09:28:25.180Z,5.67
2018-07-15T09:30:54.281Z,6.30
2018-07-15T09:33:23.543Z,5.87
2018-07-15T09:35:52.848Z,5.53
2018-07-15T09:38:21.792Z,6.17
2018-07-15T09:40:50.815Z,6.50
2018-07-15T09:43:19.590Z,6.37
2018-07-15T09:45:48.599Z,6.10
2018-07-15T09:48:17.670Z,6.53
2018-07-15T09:50:46.798Z,6.50
2018-07-15T09:53:15.884Z,5.83
2018-07-15T09:55:44.975Z,6.63
2018-07-15T09:58:14.031Z,7.80
2018-07-15T10:00:48.548Z,6.80
2018-07-15T10:03:17.571Z,5.90
2018-07-15T10:05:46.737Z,8.10
2018-07-15T10:08:15.842Z,7.13
2018-07-15T10:10:45.219Z,7.43
2018-07-15T10:13:14.380Z,7.87
2018-07-15T10:15:43.475Z,7.27
2018-07-15T10:18:12.663Z,8.50
2018-07-15T10:20:41.744Z,9.17
2018-07-15T10:23:10.911Z,8.90
2018-07-15T10:25:39.961Z,7.20
2018-07-15T10:28:09.149Z,7.43
2018-07-15T10:30:38.336Z,7.43
2018-07-15T10:33:07.564Z,7.67
2018-07-15T10:35:36.684Z,7.30
2018-07-15T10:38:06.116Z,5.57
2018-07-15T10:40:35.201Z,5.47
2018-07-15T10:43:10.971Z,5.90
2018-07-15T10:45:40.065Z,6.30
2018-07-15T10:48:09.157Z,7.87
2018-07-15T10:50:38.413Z,7.20
2018-07-15T10:53:07.483Z,7.00
2018-07-15T10:55:36.750Z,6.83
2018-07-15T10:58:06.069Z,7.53
2018-07-15T11:00:35.136Z,7.70
2018-07-15T11:03:04.220Z,7.50
2018-07-15T11:05:33.512Z,7.73
2018-07-15T11:08:02.565Z,7.33
2018-07-15T11:10:31.621Z,6.90
2018-07-15T11:13:00.874Z,7.13
2018-07-15T11:15:29.963Z,8.37
2018-07-15T11:17:59.067Z,8.30
2018-07-15T11:20:27.784Z,8.23
2018-07-15T11:22:56.764Z,9.17
2018-07-15T11:25:25.818Z,8.90
2018-07-15T11:27:54.895Z,9.50
2018-07-15T11:30:24.043Z,8.20
2018-07-15T11:32:53.093Z,8.40
2018-07-15T11:35:22.190Z,9.13
2018-07-15T11:37:51.392Z,8.03
2018-07-15T11:40:20.868Z,8.30
2018-07-15T11:42:49.947Z,8.23
2018-07-15T11:45:19.044Z,7.77
2018-07-15T11:47:48.135Z,8.53
2018-07-15T11:50:17.647Z,7.93
2018-07-15T11:52:46.877Z,7.83
2018-07-15T11:55:16.153Z,8.40
2018-07-15T11:57:45.368Z,7.37
2018-07-15T12:00:14.672Z,7.03
2018-07-15T12:02:43.788Z,8.80
2018-07-15T12:05:13.027Z,8.37
2018-07-15T12:07:42.340Z,7.30
2018-07-15T12:10:11.423Z,7.20
2018-07-15T12:12:40.610Z,6.27
2018-07-15T12:15:09.867Z,7.10
2018-07-15T12:17:39.121Z,6.87
2018-07-15T12:20:08.501Z,6.03
2018-07-15T12:22:37.836Z,6.90
2018-07-15T12:25:07.100Z,6.20
2018-07-15T12:27:36.321Z,7.07
2018-07-15T12:30:05.738Z,6.80
2018-07-15T12:32:35.176Z,6.23
2018-07-15T12:35:04.323Z,6.57
2018-07-15T12:37:33.546Z,6.37
2018-07-15T12:40:02.901Z,6.20
2018-07-15T12:42:32.079Z,6.90
2018-07-15T12:45:01.253Z,6.67
2018-07-15T12:47:30.383Z,7.10
2018-07-15T12:49:59.493Z,7.13
2018-07-15T12:52:28.364Z,7.80
2018-07-15T12:54:57.415Z,8.23
2018-07-15T12:57:26.576Z,7.60
2018-07-15T12:59:55.719Z,7.47
2018-07-15T13:02:25.016Z,7.00
2018-07-15T13:04:54.092Z,7.80
2018-07-15T13:07:23.304Z,7.60
2018-07-15T13:09:52.424Z,7.43
2018-07-15T13:12:21.717Z,8.37
2018-07-15T13:14:50.923Z,7.90
2018-07-15T13:17:20.249Z,7.50
2018-07-15T13:19:49.532Z,7.60
2018-07-15T13:22:18.742Z,7.47
2018-07-15T13:24:47.934Z,6.40
2018-07-15T13:27:17.126Z,7.37
2018-07-15T13:29:46.381Z,6.57
2018-07-15T13:32:15.317Z,7.20
2018-07-15T13:34:44.508Z,7.73
2018-07-15T13:37:13.770Z,7.00
2018-07-15T13:39:42.856Z,6.37
2018-07-15T13:42:11.948Z,7.70
2018-07-15T13:44:41.117Z,6.93
2018-07-15T13:47:10.208Z,7.30
2018-07-15T13:49:39.371Z,6.90
2018-07-15T13:52:08.464Z,6.27
2018-07-15T13:54:37.532Z,7.10
2018-07-15T13:57:06.669Z,5.90
2018-07-15T13:59:35.689Z,6.43
2018-07-15T14:02:04.798Z,7.60
2018-07-15T14:04:33.936Z,7.40
2018-07-15T14:07:02.991Z,6.07
2018-07-15T14:09:32.081Z,7.17
2018-07-15T14:12:01.201Z,6.70
2018-07-15T14:14:35.853Z,7.73
2018-07-15T14:17:05.206Z,6.03
2018-07-15T14:19:34.248Z,6.60
2018-07-15T14:22:03.296Z,5.80
2018-07-15T14:24:32.348Z,5.77
2018-07-15T14:27:01.383Z,6.70
2018-07-15T14:29:30.502Z,5.57
2018-07-15T14:31:59.609Z,6.10
2018-07-15T14:34:29.132Z,5.43
2018-07-15T14:36:58.310Z,6.27
2018-07-15T14:39:34.385Z,6.67
2018-07-15T14:42:03.816Z,6.80
2018-07-15T14:44:33.000Z,7.30
2018-07-15T14:47:02.261Z,5.67
2018-07-15T14:49:31.346Z,5.93
2018-07-15T14:52:00.601Z,6.97
2018-07-15T14:54:29.667Z,6.20
2018-07-15T14:56:58.775Z,5.90
2018-07-15T14:59:27.843Z,6.27
2018-07-15T15:01:56.953Z,5.20
2018-07-15T15:04:26.060Z,6.13
2018-07-15T15:06:55.079Z,6.70
2018-07-15T15:09:24.145Z,5.50
2018-07-15T15:11:53.315Z,5.20
2018-07-15T15:14:22.395Z,5.50
2018-07-15T15:16:51.419Z,5.63
2018-07-15T15:19:20.524Z,6.30
2018-07-15T15:21:49.589Z,5.93
2018-07-15T15:24:18.690Z,5.80
2018-07-15T15:26:47.717Z,5.83
2018-07-15T15:29:16.779Z,6.33
2018-07-15T15:31:46.069Z,6.53
2018-07-15T15:34:15.221Z,6.27
2018-07-15T15:36:44.390Z,7.37
2018-07-15T15:39:13.443Z,6.07
2018-07-15T15:41:42.743Z,5.47
2018-07-15T15:44:12.009Z,5.10
2018-07-15T15:46:41.343Z,5.60
2018-07-15T15:49:10.323Z,6.20
2018-07-15T15:51:39.305Z,6.00
2018-07-15T15:54:08.736Z,6.30
2018-07-15T15:56:37.929Z,6.63
2018-07-15T15:59:06.976Z,6.10
2018-07-15T16:01:36.063Z,6.67
2018-07-15T16:04:05.185Z,5.90
2018-07-15T16:06:34.304Z,7.10
2018-07-15T16:09:03.516Z,5.80
2018-07-15T16:11:32.264Z,7.37
2018-07-15T16:14:01.551Z,5.93
2018-07-15T16:16:30.747Z,5.97
2018-07-15T16:18:59.903Z,7.40
2018-07-15T16:21:29.023Z,6.80
2018-07-15T16:23:58.126Z,6.00
2018-07-15T16:26:27.286Z,5.93
2018-07-15T16:28:56.816Z,5.67
2018-07-15T16:31:25.928Z,6.17
2018-07-15T16:33:55.077Z,6.37
2018-07-15T16:36:24.180Z,4.93
2018-07-15T16:38:53.280Z,5.50
2018-07-15T16:41:22.412Z,6.00
2018-07-15T16:43:51.568Z,5.23
2018-07-15T16:46:20.796Z,5.00
2018-07-15T16:48:49.889Z,5.70
2018-07-15T16:51:19.302Z,5.93
2018-07-15T16:53:48.628Z,5.50
2018-07-15T16:56:18.001Z,5.37
2018-07-15T16:58:47.092Z,6.63
2018-07-15T17:01:16.164Z,5.83
2018-07-15T17:03:45.537Z,5.37
2018-07-15T17:06:14.842Z,5.70
2018-07-15T17:08:43.901Z,6.30
2018-07-15T17:11:13.075Z,5.53
2018-07-15T17:13:42.116Z,5.27
2018-07-15T17:16:11.197Z,5.80
2018-07-15T17:18:40.270Z,6.10
2018-07-15T17:21:09.524Z,6.60
2018-07-15T17:23:38.825Z,6.90
2018-07-15T17:26:07.976Z,6.20
2018-07-15T17:28:37.194Z,6.00
2018-07-15T17:31:06.485Z,6.33
2018-07-15T17:33:35.640Z,6.90
2018-07-15T17:36:04.902Z,8.63
2018-07-15T17:38:33.953Z,7.40
2018-07-15T17:41:03.069Z,8.53
2018-07-15T17:43:32.154Z,6.50
2018-07-15T17:46:01.420Z,6.73
2018-07-15T17:48:30.505Z,6.47
2018-07-15T17:50:59.571Z,6.93
2018-07-15T17:53:28.633Z,7.40
2018-07-15T17:55:57.693Z,6.10
2018-07-15T17:58:27.944Z,5.80
2018-07-15T18:00:57.108Z,6.30
2018-07-15T18:03:26.145Z,6.30
2018-07-15T18:05:55.224Z,5.73
2018-07-15T18:08:24.297Z,6.50
2018-07-15T18:10:53.416Z,6.30
2018-07-15T18:13:22.440Z,5.73
2018-07-15T18:15:51.490Z,6.63
2018-07-15T18:18:20.510Z,6.30
2018-07-15T18:20:49.593Z,6.47
2018-07-15T18:23:18.644Z,6.00
2018-07-15T18:25:47.800Z,5.63
2018-07-15T18:28:16.840Z,6.40
2018-07-15T18:30:45.917Z,6.20
2018-07-15T18:33:15.100Z,6.63
2018-07-15T18:35:44.286Z,7.20
2018-07-15T18:38:13.470Z,6.80
2018-07-15T18:40:42.634Z,5.37
2018-07-15T18:43:11.802Z,6.97
2018-07-15T18:45:40.965Z,6.93
2018-07-15T18:48:09.992Z,6.40
2018-07-15T18:50:39.046Z,6.30
2018-07-15T18:53:08.122Z,6.17
2018-07-15T18:55:37.211Z,7.37
2018-07-15T18:58:06.529Z,6.60
2018-07-15T19:00:35.869Z,6.70
2018-07-15T19:03:04.908Z,7.77
2018-07-15T19:05:34.099Z,7.03
2018-07-15T19:08:03.156Z,7.17
2018-07-15T19:10:32.240Z,6.77
2018-07-15T19:13:01.521Z,7.93
2018-07-15T19:15:30.653Z,7.07
2018-07-15T19:18:00.094Z,8.08
2018-07-15T19:20:29.167Z,7.53
2018-07-15T19:22:58.441Z,7.20
2018-07-15T19:25:27.572Z,7.70
2018-07-15T19:27:56.612Z,7.20
2018-07-15T19:30:25.876Z,7.57
2018-07-15T19:32:54.948Z,7.30
2018-07-15T19:35:24.081Z,7.67
2018-07-15T19:37:53.195Z,8.20
2018-07-15T19:40:22.309Z,7.47
2018-07-15T19:42:51.353Z,7.80
2018-07-15T19:45:20.460Z,10.28
2018-07-15T19:47:49.532Z,13.40
2018-07-15T19:50:18.596Z,12.47
2018-07-15T19:52:47.648Z,11.48
2018-07-15T19:55:16.759Z,12.15
2018-07-15T19:57:46.197Z,11.97
2018-07-15T20:00:15.296Z,10.32
2018-07-15T20:02:44.579Z,10.05
2018-07-15T20:05:13.820Z,9.40
2018-07-15T20:07:43.101Z,9.85
2018-07-15T20:10:12.449Z,10.38
2018-07-15T20:12:41.213Z,10.00
2018-07-15T20:15:10.345Z,9.85
2018-07-15T20:17:39.452Z,10.40
2018-07-15T20:20:10.341Z,9.08
2018-07-15T20:22:39.467Z,8.38
2018-07-15T20:25:08.993Z,8.60
2018-07-15T20:27:38.131Z,9.05
2018-07-15T20:30:07.245Z,8.85
2018-07-15T20:32:36.307Z,8.88
2018-07-15T20:35:05.418Z,9.38
2018-07-15T20:37:34.642Z,8.78
2018-07-15T20:40:03.842Z,9.23
2018-07-15T20:42:33.142Z,12.55
2018-07-15T20:45:02.565Z,9.03
2018-07-15T20:47:31.662Z,9.20
2018-07-15T20:50:00.776Z,9.83
2018-07-15T20:52:29.882Z,9.88
2018-07-15T20:54:58.996Z,9.38
2018-07-15T20:57:28.018Z,8.68
2018-07-15T20:59:57.076Z,9.25
2018-07-15T21:02:26.211Z,9.85
2018-07-15T21:04:55.293Z,9.90
2018-07-15T21:07:24.429Z,10.75
2018-07-15T21:09:53.452Z,11.93
2018-07-15T21:12:22.611Z,9.75
2018-07-15T21:14:51.745Z,9.60
2018-07-15T21:17:20.787Z,8.30
2018-07-15T21:19:49.843Z,8.28
2018-07-15T21:22:18.856Z,8.38
2018-07-15T21:24:47.936Z,9.98
2018-07-15T21:27:17.057Z,7.50
2018-07-15T21:29:46.166Z,9.00
2018-07-15T21:32:15.396Z,8.25
2018-07-15T21:34:44.570Z,7.58
2018-07-15T21:37:13.628Z,8.23
2018-07-15T21:39:42.691Z,8.63
2018-07-15T21:42:12.679Z,8.68
2018-07-15T21:44:41.700Z,8.10
2018-07-15T21:47:10.756Z,7.12
2018-07-15T21:49:39.785Z,8.15
2018-07-15T21:52:09.032Z,8.30
2018-07-15T21:54:38.067Z,8.58
2018-07-15T21:57:07.226Z,8.33
2018-07-15T21:59:36.241Z,7.87
2018-07-15T22:02:05.449Z,8.38
2018-07-15T22:04:34.497Z,8.58
2018-07-15T22:07:14.862Z,8.50
